Time;durP1;ratioP1;P1;durP2;ratioP2;P2;SDS_P1;SDS_P2;PMS_P1;PMS_P2;Temp;Humidity;BMP_temperature;BMP_pressure;BME280_temperature;BME280_humidity;BME280_pressure;Samples;Min_cycle;Max_cycle;Signal;HPM_P1;HPM_P2
2021/12/03 00:01:09;;;;;;;0.10;0.10;;;;;;;19.44;41.40;100678.16;5136048;27;20404;-37
2021/12/03 00:03:36;;;;;;;0.20;0.20;;;;;;;19.46;41.19;100677.88;5136291;27;20039;-40
2021/12/03 00:06:02;;;;;;;0.20;0.20;;;;;;;19.47;41.44;100690.56;5101461;27;20096;-37
2021/12/03 00:08:27;;;;;;;0.10;0.10;;;;;;;19.45;41.46;100682.56;5122403;27;20043;-37
2021/12/03 00:10:57;;;;;;;0.20;0.20;;;;;;;19.45;41.26;100685.34;5120247;27;20122;-39
2021/12/03 00:13:24;;;;;;;0.20;0.20;;;;;;;19.45;41.12;100685.34;5137614;27;20496;-37
2021/12/03 00:15:50;;;;;;;0.20;0.20;;;;;;;19.45;41.27;100677.06;5133825;27;20049;-37
2021/12/03 00:18:16;;;;;;;0.20;0.20;;;;;;;19.44;41.09;100672.66;5122331;27;20073;-37
2021/12/03 00:20:42;;;;;;;0.20;0.20;;;;;;;19.44;41.45;100672.66;5136343;27;20470;-37
2021/12/03 00:23:08;;;;;;;0.20;0.20;;;;;;;19.45;41.21;100662.41;5138934;27;20455;-37
2021/12/03 00:25:34;;;;;;;0.20;0.20;;;;;;;19.43;41.16;100668.25;5118004;27;20304;-36
2021/12/03 00:28:01;;;;;;;0.20;0.20;;;;;;;19.44;40.97;100669.88;5106078;27;20031;-37
2021/12/03 00:30:32;;;;;;;0.20;0.20;;;;;;;19.45;41.12;100670.72;5138424;27;20364;-37
2021/12/03 00:32:57;;;;;;;0.20;0.20;;;;;;;19.44;41.44;100669.88;5116877;27;20047;-37
2021/12/03 00:35:23;;;;;;;0.20;0.20;;;;;;;19.44;41.25;100677.34;5137921;27;20042;-36
2021/12/03 00:37:50;;;;;;;0.20;0.20;;;;;;;19.43;41.14;100673.78;5119349;27;20510;-38
2021/12/03 00:40:21;;;;;;;0.20;0.20;;;;;;;19.45;41.23;100679.81;5119423;27;20045;-37
2021/12/03 00:42:46;;;;;;;0.20;0.20;;;;;;;19.44;41.17;100675.41;5118078;27;20042;-37
2021/12/03 00:45:12;;;;;;;0.20;0.20;;;;;;;19.43;41.27;100684.81;5133591;27;20054;-37
2021/12/03 00:47:40;;;;;;;0.20;0.20;;;;;;;19.45;41.21;100692.81;5139725;27;20039;-36
2021/12/03 00:50:08;;;;;;;0.20;0.20;;;;;;;19.43;41.19;100697.78;5135059;27;20072;-37
2021/12/03 00:52:33;;;;;;;0.20;0.20;;;;;;;19.43;41.16;100701.38;5116068;27;20039;-36
2021/12/03 00:54:59;;;;;;;0.20;0.20;;;;;;;19.42;41.22;100694.19;5116800;27;20042;-37
2021/12/03 00:57:25;;;;;;;0.20;0.20;;;;;;;19.43;41.16;100697.78;5136303;27;20079;-37
2021/12/03 00:59:50;;;;;;;0.20;0.20;;;;;;;19.44;41.42;100704.97;5141100;27;20548;-37
2021/12/03 01:02:17;;;;;;;0.20;0.20;;;;;;;19.44;41.39;100693.91;5132921;27;20051;-37
2021/12/03 01:04:44;;;;;;;0.20;0.20;;;;;;;19.42;41.19;100685.91;5132558;27;20039;-37
2021/12/03 01:07:10;;;;;;;0.20;0.20;;;;;;;19.42;41.38;100691.44;5119103;27;20057;-37
2021/12/03 01:09:35;;;;;;;0.20;0.20;;;;;;;19.42;41.14;100696.94;5136875;27;20043;-36
2021/12/03 01:12:01;;;;;;;0.20;0.20;;;;;;;19.42;41.29;100696.94;5134687;27;20042;-38
2021/12/03 01:14:27;;;;;;;0.20;0.20;;;;;;;19.43;41.16;100708.81;5135065;27;20086;-37
2021/12/03 01:16:52;;;;;;;0.20;0.20;;;;;;;19.43;41.41;100712.44;5137471;27;20100;-39
2021/12/03 01:19:18;;;;;;;0.20;0.20;;;;;;;19.43;41.28;100714.34;5137943;27;20065;-37
2021/12/03 01:21:44;;;;;;;0.20;0.20;;;;;;;19.44;41.25;100716.00;5136432;27;20039;-37
2021/12/03 01:24:10;;;;;;;0.20;0.20;;;;;;;19.42;41.24;100715.47;5134659;27;20035;-37
2021/12/03 01:26:38;;;;;;;0.20;0.20;;;;;;;19.41;41.41;100713.81;5138359;27;20486;-38
2021/12/03 01:29:03;;;;;;;0.20;0.20;;;;;;;19.42;41.54;100708.00;5136767;27;20047;-37
2021/12/03 01:31:29;;;;;;;0.20;0.20;;;;;;;19.41;41.24;100708.28;5134590;27;20118;-39
2021/12/03 01:33:55;;;;;;;0.20;0.20;;;;;;;19.40;41.35;100704.72;5117002;27;20043;-36
2021/12/03 01:36:21;;;;;;;0.20;0.20;;;;;;;19.43;41.51;100706.06;5138781;27;20039;-38
2021/12/03 01:38:46;;;;;;;0.20;0.20;;;;;;;19.43;40.95;100706.91;5134509;27;20142;-38
2021/12/03 01:41:12;;;;;;;0.20;0.20;;;;;;;19.42;41.36;100708.00;5137713;27;20477;-36
2021/12/03 01:43:38;;;;;;;0.20;0.20;;;;;;;19.41;41.18;100706.34;5132649;27;20043;-38
2021/12/03 01:46:07;;;;;;;0.20;0.20;;;;;;;19.42;41.43;100707.19;5118818;27;20046;-37
2021/12/03 01:48:34;;;;;;;0.20;0.20;;;;;;;19.41;41.27;100711.88;5134661;27;20048;-40
2021/12/03 01:51:01;;;;;;;0.20;0.20;;;;;;;19.43;41.32;100719.88;5111814;27;20038;-37
2021/12/03 01:53:29;;;;;;;0.20;0.20;;;;;;;19.42;41.08;100710.75;5116099;27;20047;-38
2021/12/03 01:55:58;;;;;;;0.10;0.10;;;;;;;19.42;41.39;100719.03;5120696;27;20047;-37
2021/12/03 01:58:24;;;;;;;0.20;0.20;;;;;;;19.41;41.10;100716.59;5120095;27;20042;-38
2021/12/03 02:00:54;;;;;;;0.20;0.20;;;;;;;19.40;41.40;100718.53;5132715;27;20043;-37
2021/12/03 02:03:23;;;;;;;0.20;0.20;;;;;;;19.41;41.43;100724.88;5137536;27;20046;-37
2021/12/03 02:05:50;;;;;;;0.10;0.10;;;;;;;19.41;41.29;100720.16;5133249;27;20499;-37
2021/12/03 02:08:15;;;;;;;0.20;0.20;;;;;;;19.40;41.54;100729.56;5136993;27;20084;-37
2021/12/03 02:10:42;;;;;;;0.20;0.20;;;;;;;19.42;41.41;100729.28;5136518;27;20043;-36
2021/12/03 02:13:10;;;;;;;0.20;0.20;;;;;;;19.41;41.33;100733.97;5136727;27;20039;-39
2021/12/03 02:15:37;;;;;;;0.20;0.20;;;;;;;19.41;41.22;100727.63;5135338;27;20039;-37
2021/12/03 02:18:05;;;;;;;0.20;0.20;;;;;;;19.40;41.42;100723.22;5140049;27;20051;-37
2021/12/03 02:20:31;;;;;;;0.20;0.20;;;;;;;19.39;41.39;100716.88;5139272;27;20155;-36
2021/12/03 02:22:57;;;;;;;0.20;0.20;;;;;;;19.41;41.49;100722.94;5133948;27;20259;-38
2021/12/03 02:25:24;;;;;;;0.20;0.20;;;;;;;19.40;41.33;100720.47;5134931;27;20046;-37
2021/12/03 02:27:53;;;;;;;0.20;0.20;;;;;;;19.40;41.27;100723.22;5116653;27;20043;-37
2021/12/03 02:30:20;;;;;;;0.20;0.20;;;;;;;19.39;41.35;100718.81;5135489;27;20412;-37
2021/12/03 02:32:46;;;;;;;0.20;0.20;;;;;;;19.38;41.36;100723.50;5136588;27;20072;-37
2021/12/03 02:35:12;;;;;;;0.20;0.20;;;;;;;19.39;41.15;100730.69;5133535;27;20058;-36
2021/12/03 02:37:38;;;;;;;0.20;0.20;;;;;;;19.39;41.43;100733.44;5134305;27;20046;-41
2021/12/03 02:40:05;;;;;;;0.20;0.20;;;;;;;19.38;41.22;100731.78;5135790;27;20397;-36
2021/12/03 02:42:31;;;;;;;0.20;0.20;;;;;;;19.38;41.29;100733.72;5115058;27;20045;-37
2021/12/03 02:44:56;;;;;;;0.20;0.20;;;;;;;19.38;41.29;100730.94;5130652;27;20088;-40
2021/12/03 02:47:22;;;;;;;0.20;0.20;;;;;;;19.38;41.29;100720.72;5138931;27;20070;-38
2021/12/03 02:49:48;;;;;;;0.20;0.20;;;;;;;19.38;41.15;100720.72;5134159;27;20047;-41
2021/12/03 02:52:14;;;;;;;0.20;0.20;;;;;;;19.39;41.44;100716.88;5137512;27;20587;-37
2021/12/03 02:54:39;;;;;;;0.20;0.20;;;;;;;19.39;41.37;100718.81;5130261;27;20062;-39
2021/12/03 02:57:06;;;;;;;0.20;0.20;;;;;;;19.38;41.15;100717.97;5131793;27;20142;-36
2021/12/03 02:59:32;;;;;;;0.20;0.20;;;;;;;19.39;41.23;100716.06;5132775;27;20043;-38
2021/12/03 03:02:02;;;;;;;0.20;0.20;;;;;;;19.38;41.18;100733.72;5136503;27;21249;-40
2021/12/03 03:04:48;;;;;;;0.20;0.20;;;;;;;19.39;41.22;100727.94;5119403;27;20036;-38
2021/12/03 03:07:14;;;;;;;0.20;0.20;;;;;;;19.39;41.45;100716.06;5139014;27;20381;-36
2021/12/03 03:09:44;;;;;;;0.20;0.20;;;;;;;19.39;41.26;100724.34;5138015;27;20130;-37
2021/12/03 03:12:11;;;;;;;0.10;0.10;;;;;;;19.38;41.34;100726.25;5134144;27;20062;-39
2021/12/03 03:14:58;;;;;;;0.20;0.20;;;;;;;19.38;41.25;100723.50;5114297;27;20451;-37
2021/12/03 03:17:26;;;;;;;0.20;0.20;;;;;;;19.38;41.44;100728.19;5121378;27;20053;-39
2021/12/03 03:19:52;;;;;;;0.20;0.20;;;;;;;19.38;41.10;100740.06;5130164;27;20138;-36
2021/12/03 03:22:18;;;;;;;0.20;0.20;;;;;;;19.38;41.46;100740.06;5135663;27;20043;-36
2021/12/03 03:24:45;;;;;;;0.20;0.20;;;;;;;19.38;41.26;100742.81;5134143;27;20482;-37
2021/12/03 03:27:11;;;;;;;0.20;0.20;;;;;;;19.39;41.19;100738.16;5116794;27;20096;-38
2021/12/03 03:29:36;;;;;;;0.20;0.20;;;;;;;19.36;41.40;100725.72;5136061;27;20096;-42
2021/12/03 03:32:03;;;;;;;0.20;0.20;;;;;;;19.37;41.15;100730.13;5134972;27;21193;-40
2021/12/03 03:34:28;;;;;;;0.20;0.20;;;;;;;19.38;41.22;100726.25;5135701;27;20050;-38
2021/12/03 03:36:54;;;;;;;0.20;0.20;;;;;;;19.38;41.09;100728.19;5139014;27;20035;-37
2021/12/03 03:39:20;;;;;;;0.20;0.20;;;;;;;19.37;41.17;100723.78;5139305;27;20058;-38
2021/12/03 03:41:46;;;;;;;0.17;0.17;;;;;;;19.37;41.46;100721.84;5135163;27;20150;-38
2021/12/03 03:44:15;;;;;;;0.20;0.20;;;;;;;19.38;41.42;100711.63;5136282;27;20046;-37
2021/12/03 03:46:41;;;;;;;0.20;0.20;;;;;;;19.37;41.36;100708.03;5121242;27;20043;-37
2021/12/03 03:49:07;;;;;;;0.20;0.20;;;;;;;19.37;41.21;100704.47;5136316;27;20095;-37
2021/12/03 03:51:33;;;;;;;0.20;0.20;;;;;;;19.37;41.35;100702.53;5142749;27;20280;-37
2021/12/03 03:53:59;;;;;;;0.20;0.20;;;;;;;19.37;41.33;100712.75;5117496;27;20061;-36
2021/12/03 03:56:25;;;;;;;0.20;0.20;;;;;;;19.38;41.23;100708.88;5138037;27;20045;-43
2021/12/03 03:58:51;;;;;;;0.20;0.20;;;;;;;19.36;41.29;100711.91;5138893;27;20047;-37
2021/12/03 04:01:16;;;;;;;0.20;0.20;;;;;;;19.36;41.13;100703.63;5137636;27;20263;-37
2021/12/03 04:03:46;;;;;;;0.20;0.20;;;;;;;19.36;41.38;100703.63;5134762;27;20481;-45
2021/12/03 04:06:14;;;;;;;0.20;0.20;;;;;;;19.35;41.37;100692.88;5142884;27;20051;-36
2021/12/03 04:08:39;;;;;;;0.20;0.20;;;;;;;19.35;41.16;100690.94;5119109;27;20055;-36
2021/12/03 04:11:05;;;;;;;0.20;0.20;;;;;;;19.37;40.91;100693.41;5139382;27;20128;-37
2021/12/03 04:13:30;;;;;;;0.20;0.20;;;;;;;19.38;41.32;100690.34;5136350;27;20054;-37
2021/12/03 04:15:56;;;;;;;0.20;0.20;;;;;;;19.36;41.11;100687.06;5137902;27;20269;-38
2021/12/03 04:18:22;;;;;;;0.20;0.20;;;;;;;19.36;41.41;100692.59;5137047;27;20077;-37
2021/12/03 04:20:49;;;;;;;0.20;0.20;;;;;;;19.36;41.20;100689.00;5134846;27;20099;-37
2021/12/03 04:23:18;;;;;;;0.20;0.20;;;;;;;19.36;41.28;100689.00;5139116;27;20047;-37
2021/12/03 04:25:45;;;;;;;0.20;0.20;;;;;;;19.36;41.21;100683.50;5118139;27;20078;-37
2021/12/03 04:28:11;;;;;;;0.10;0.10;;;;;;;19.35;41.29;100685.44;5138191;27;20057;-37
2021/12/03 04:30:37;;;;;;;0.20;0.20;;;;;;;19.35;41.38;100677.16;5133279;27;20060;-37
2021/12/03 04:33:03;;;;;;;0.20;0.20;;;;;;;19.34;41.48;100677.41;5119158;27;20096;-40
2021/12/03 04:35:29;;;;;;;0.20;0.20;;;;;;;19.35;41.24;100677.16;5142282;27;20050;-37
2021/12/03 04:37:55;;;;;;;0.20;0.20;;;;;;;19.34;41.22;100674.66;5116803;27;20043;-38
2021/12/03 04:40:21;;;;;;;0.20;0.20;;;;;;;19.35;41.18;100676.31;5119702;27;20083;-38
2021/12/03 04:42:48;;;;;;;0.20;0.20;;;;;;;19.36;41.27;100675.19;5136762;27;20481;-36
2021/12/03 04:45:15;;;;;;;0.20;0.20;;;;;;;19.34;41.19;100669.13;5118682;27;20185;-36
2021/12/03 04:47:41;;;;;;;0.20;0.20;;;;;;;19.35;41.12;100662.53;5117084;27;20043;-36
2021/12/03 04:50:09;;;;;;;0.20;0.20;;;;;;;19.34;41.15;100663.59;5135888;27;20039;-38
2021/12/03 04:52:35;;;;;;;0.20;0.20;;;;;;;19.36;41.34;100675.19;5138553;27;20495;-37
2021/12/03 04:55:00;;;;;;;0.20;0.20;;;;;;;19.34;41.26;100663.59;5120145;27;20042;-37
2021/12/03 04:57:26;;;;;;;0.20;0.20;;;;;;;19.34;41.22;100669.13;5137058;27;20051;-42
2021/12/03 04:59:52;;;;;;;0.20;0.20;;;;;;;19.35;41.18;100668.03;5120716;27;21176;-38
2021/12/03 05:02:19;;;;;;;0.20;0.20;;;;;;;19.35;41.44;100674.38;5140358;27;20070;-36
2021/12/03 05:04:47;;;;;;;0.10;0.10;;;;;;;19.35;41.39;100668.03;5132977;27;20047;-38
2021/12/03 05:07:28;;;;;;;0.15;0.15;;;;;;;19.35;41.42;100676.31;5120115;27;20061;-37
2021/12/03 05:09:54;;;;;;;0.20;0.20;;;;;;;19.34;41.24;100678.22;5115701;27;20038;-40
2021/12/03 05:12:20;;;;;;;0.20;0.20;;;;;;;19.34;41.45;100682.94;5136091;27;20103;-37
2021/12/03 05:14:46;;;;;;;0.20;0.20;;;;;;;19.35;41.29;100687.38;5139911;27;20434;-37
2021/12/03 05:17:11;;;;;;;0.20;0.20;;;;;;;19.34;41.44;100685.69;5137641;27;20316;-36
2021/12/03 05:19:37;;;;;;;0.20;0.20;;;;;;;19.34;41.42;100682.94;5121886;27;20039;-38
2021/12/03 05:22:06;;;;;;;0.20;0.20;;;;;;;19.34;41.12;100688.47;5136133;27;20581;-36
2021/12/03 05:24:31;;;;;;;0.20;0.20;;;;;;;19.34;41.16;100686.50;5140457;27;20039;-37
2021/12/03 05:26:57;;;;;;;0.20;0.20;;;;;;;19.35;41.35;100682.66;5136512;27;20125;-37
2021/12/03 05:29:23;;;;;;;0.20;0.20;;;;;;;19.33;41.12;100675.78;5116121;27;20405;-38
2021/12/03 05:31:48;;;;;;;0.20;0.20;;;;;;;19.34;41.18;100672.72;5139929;27;20534;-36
2021/12/03 05:34:28;;;;;;;0.20;0.20;;;;;;;19.34;41.26;100678.22;5138888;27;20528;-37
2021/12/03 05:36:53;;;;;;;0.20;0.20;;;;;;;19.34;41.43;100671.88;5111133;27;20133;-37
2021/12/03 05:39:19;;;;;;;0.20;0.20;;;;;;;19.34;41.06;100685.69;5135802;27;20439;-36
2021/12/03 05:41:45;;;;;;;0.20;0.20;;;;;;;19.34;41.05;100685.69;5135055;27;20081;-36
2021/12/03 05:44:10;;;;;;;0.20;0.20;;;;;;;19.35;41.08;100684.59;5132791;27;20397;-37
2021/12/03 05:46:36;;;;;;;0.20;0.20;;;;;;;19.35;41.27;100698.41;5133670;27;20046;-36
2021/12/03 05:49:03;;;;;;;0.20;0.20;;;;;;;19.33;41.01;100695.09;5134597;27;20043;-38
2021/12/03 05:51:29;;;;;;;0.20;0.20;;;;;;;19.33;41.35;100695.91;5116559;27;20047;-36
2021/12/03 05:53:55;;;;;;;0.20;0.20;;;;;;;19.32;41.27;100691.53;5138871;27;20486;-37
2021/12/03 05:56:21;;;;;;;0.20;0.20;;;;;;;19.33;41.14;100689.56;5135346;27;20103;-41
2021/12/03 05:58:48;;;;;;;0.20;0.20;;;;;;;19.30;40.99;100680.78;5115381;27;20051;-37
2021/12/03 06:01:14;;;;;;;0.20;0.20;;;;;;;19.32;41.05;100680.47;5134234;27;20474;-37
2021/12/03 06:03:40;;;;;;;0.13;0.13;;;;;;;19.32;41.01;100679.66;5115874;27;20057;-40
2021/12/03 06:06:05;;;;;;;0.20;0.20;;;;;;;19.32;41.12;100682.41;5133415;27;20051;-37
2021/12/03 06:08:31;;;;;;;0.20;0.20;;;;;;;19.33;40.95;100686.81;5140348;27;20043;-41
2021/12/03 06:10:57;;;;;;;0.20;0.20;;;;;;;19.31;41.10;100684.34;5132649;27;20048;-37
2021/12/03 06:13:22;;;;;;;0.20;0.20;;;;;;;19.30;40.98;100691.00;5137589;27;20058;-40
2021/12/03 06:15:48;;;;;;;0.20;0.20;;;;;;;19.30;41.22;100689.06;5137938;27;20091;-40
2021/12/03 06:18:14;;;;;;;0.20;0.20;;;;;;;19.33;41.26;100686.81;5135025;27;20070;-39
2021/12/03 06:20:39;;;;;;;0.20;0.20;;;;;;;19.30;41.00;100680.78;5130080;27;20454;-38
2021/12/03 06:23:05;;;;;;;0.20;0.20;;;;;;;19.36;41.11;100683.50;5134406;27;20299;-39
2021/12/03 06:25:31;;;;;;;0.20;0.20;;;;;;;19.50;39.93;100684.47;5128770;27;20086;-44
2021/12/03 06:27:58;;;;;;;0.20;0.20;;;;;;;19.61;40.01;100686.06;5130591;27;20039;-40
2021/12/03 06:30:24;;;;;;;0.10;0.10;;;;;;;19.57;40.47;100678.63;5125802;27;20057;-42
2021/12/03 06:32:51;;;;;;;0.20;0.20;;;;;;;19.51;40.62;100684.16;5109667;27;20107;-43
2021/12/03 06:35:17;;;;;;;0.20;0.20;;;;;;;19.50;40.49;100685.28;5112682;27;20046;-40
2021/12/03 06:37:44;;;;;;;0.20;0.20;;;;;;;19.50;40.85;100699.09;5129128;27;20469;-41
2021/12/03 06:40:13;;;;;;;0.20;0.20;;;;;;;19.49;40.81;100689.16;5128894;27;20043;-42
2021/12/03 06:42:39;;;;;;;0.20;0.20;;;;;;;19.50;40.94;100690.81;5112936;27;21197;-40
2021/12/03 06:45:06;;;;;;;0.20;0.20;;;;;;;19.48;40.90;100682.00;5130173;27;20046;-39
2021/12/03 06:47:32;;;;;;;0.20;0.20;;;;;;;19.48;40.90;100683.94;5111618;27;20061;-41
2021/12/03 06:49:58;;;;;;;0.20;0.20;;;;;;;19.48;40.85;100675.66;5116210;27;20445;-42
2021/12/03 06:52:25;;;;;;;0.20;0.20;;;;;;;19.48;40.92;100670.97;5125443;27;20487;-39
2021/12/03 06:54:57;;;;;;;0.20;0.20;;;;;;;19.48;40.77;100670.13;5106413;27;20035;-44
2021/12/03 06:57:22;;;;;;;0.20;0.20;;;;;;;19.49;40.61;100674.53;5127604;27;20038;-40
2021/12/03 06:59:48;;;;;;;0.20;0.20;;;;;;;19.56;38.92;100677.81;5125303;27;20043;-44
2021/12/03 07:02:14;;;;;;;0.20;0.20;;;;;;;19.64;38.59;100676.38;5132182;27;20102;-39
2021/12/03 07:04:40;;;;;;;0.20;0.20;;;;;;;19.72;39.35;100675.75;5110280;27;20100;-40
2021/12/03 07:07:06;;;;;;;0.20;0.20;;;;;;;19.79;39.42;100679.00;5109327;27;20110;-38
2021/12/03 07:09:32;;;;;;;0.20;0.20;;;;;;;19.80;39.50;100675.13;5111839;27;20050;-37
2021/12/03 07:11:58;;;;;;;0.20;0.20;;;;;;;19.77;39.58;100679.31;5106061;27;20060;-38
2021/12/03 07:14:24;;;;;;;0.20;0.20;;;;;;;19.79;39.93;100673.47;5126198;27;20042;-42
2021/12/03 07:16:49;;;;;;;0.20;0.20;;;;;;;19.78;39.94;100666.31;5128425;27;20442;-40
2021/12/03 07:19:15;;;;;;;0.20;0.20;;;;;;;19.78;39.99;100666.31;5124849;27;20058;-37
2021/12/03 07:21:41;;;;;;;0.20;0.20;;;;;;;19.76;39.79;100669.34;5126978;27;20580;-38
2021/12/03 07:24:07;;;;;;;0.20;0.20;;;;;;;19.78;39.88;100663.53;5124803;27;20081;-37
2021/12/03 07:26:32;;;;;;;0.20;0.20;;;;;;;19.77;40.12;100670.16;5108665;27;20078;-41
2021/12/03 07:28:58;;;;;;;0.20;0.20;;;;;;;19.79;40.09;100667.94;5137021;27;20049;-37
2021/12/03 07:31:25;;;;;;;0.20;0.20;;;;;;;19.77;40.23;100665.50;5131088;27;20043;-37
2021/12/03 07:33:56;;;;;;;0.20;0.20;;;;;;;19.78;39.97;100669.91;5112930;27;20060;-37
2021/12/03 07:36:22;;;;;;;0.20;0.20;;;;;;;19.80;40.02;100672.34;5128749;27;20088;-40
2021/12/03 07:38:48;;;;;;;0.20;0.20;;;;;;;19.80;40.09;100667.66;5131135;27;20083;-37
2021/12/03 07:41:14;;;;;;;0.20;0.20;;;;;;;19.82;39.92;100663.75;5126552;27;20105;-41
2021/12/03 07:43:40;;;;;;;0.20;0.20;;;;;;;19.83;40.07;100669.03;5128481;27;20055;-40
2021/12/03 07:46:06;;;;;;;0.20;0.20;;;;;;;19.84;40.06;100658.78;5112788;27;20043;-37
2021/12/03 07:48:31;;;;;;;0.20;0.20;;;;;;;19.84;40.12;100662.38;5108702;27;20522;-36
2021/12/03 07:50:58;;;;;;;0.20;0.20;;;;;;;19.85;39.89;100663.19;5125464;27;20077;-40
2021/12/03 07:53:24;;;;;;;0.20;0.20;;;;;;;19.83;39.75;100670.97;5106501;27;20039;-36
2021/12/03 07:55:52;;;;;;;0.20;0.20;;;;;;;19.91;39.72;100662.84;5104562;27;20042;-39
2021/12/03 07:58:18;;;;;;;0.20;0.20;;;;;;;19.92;39.43;100663.69;5101476;27;21749;-35
2021/12/03 08:00:44;;;;;;;0.20;0.20;;;;;;;19.89;40.08;100664.25;5098539;27;20102;-40
2021/12/03 08:03:16;;;;;;;0.20;0.20;;;;;;;19.88;39.75;100660.66;5104276;27;20145;-35
2021/12/03 08:05:43;;;;;;;0.20;0.20;;;;;;;19.91;39.96;100670.34;5106301;27;20050;-36
2021/12/03 08:08:08;;;;;;;0.20;0.20;;;;;;;19.91;39.89;100656.50;5115033;27;20107;-37
2021/12/03 08:10:34;;;;;;;0.20;0.20;;;;;;;19.90;39.96;100649.31;5098794;27;20055;-40
2021/12/03 08:13:01;;;;;;;0.20;0.20;;;;;;;19.91;40.04;100673.91;5122140;27;20073;-36
2021/12/03 08:15:26;;;;;;;0.20;0.20;;;;;;;19.91;40.08;100673.91;5110226;27;20047;-39
2021/12/03 08:17:52;;;;;;;0.13;0.13;;;;;;;19.92;40.18;100675.56;5125129;27;20051;-41
2021/12/03 08:20:18;;;;;;;0.20;0.20;;;;;;;19.93;39.93;100679.97;5126655;27;20039;-41
2021/12/03 08:22:49;;;;;;;0.20;0.20;;;;;;;19.94;40.01;100687.13;5128011;27;20473;-36
2021/12/03 08:25:15;;;;;;;0.20;0.20;;;;;;;19.96;39.88;100689.63;5122916;27;20055;-44
2021/12/03 08:27:41;;;;;;;0.20;0.20;;;;;;;19.94;39.80;100692.66;5109030;27;20454;-37
2021/12/03 08:30:09;;;;;;;0.20;0.20;;;;;;;19.96;39.75;100690.44;5130520;27;20740;-37
2021/12/03 08:32:35;;;;;;;0.20;0.20;;;;;;;19.97;39.75;100682.97;5127981;27;20149;-40
2021/12/03 08:35:01;;;;;;;0.20;0.20;;;;;;;19.97;40.02;100674.69;5115177;27;20043;-37
2021/12/03 08:37:27;;;;;;;0.20;0.20;;;;;;;19.97;40.07;100675.50;5125708;27;20089;-38
2021/12/03 08:39:52;;;;;;;0.20;0.20;;;;;;;19.97;39.63;100667.22;5131324;27;20043;-37
2021/12/03 08:42:18;;;;;;;0.20;0.20;;;;;;;19.99;39.81;100677.97;5130079;27;20046;-43
2021/12/03 08:44:45;;;;;;;0.20;0.20;;;;;;;19.99;40.14;100666.91;5129992;27;20062;-39
2021/12/03 08:47:11;;;;;;;0.20;0.20;;;;;;;20.01;39.92;100661.91;5127196;27;20481;-42
2021/12/03 08:49:54;;;;;;;0.10;0.10;;;;;;;20.00;39.86;100658.34;5126183;27;20047;-39
2021/12/03 08:55:07;;;;;;;0.20;0.20;;;;;;;20.08;39.21;100664.31;5111796;27;20095;-41
2021/12/03 08:57:33;;;;;;;0.20;0.20;;;;;;;20.09;39.29;100654.94;5128513;27;20099;-37
2021/12/03 09:00:04;;;;;;;0.10;0.10;;;;;;;20.05;39.07;100652.75;5126154;27;20050;-38
2021/12/03 09:02:30;;;;;;;0.20;0.20;;;;;;;20.06;39.16;100659.09;5127522;27;20043;-39
2021/12/03 09:04:56;;;;;;;0.20;0.20;;;;;;;20.07;39.18;100659.91;5122274;27;21117;-38
2021/12/03 09:07:21;;;;;;;0.20;0.20;;;;;;;20.09;38.53;100660.47;5124673;27;20047;-38
2021/12/03 09:09:47;;;;;;;0.20;0.20;;;;;;;20.11;38.57;100656.28;5113537;27;20039;-37
2021/12/03 09:12:13;;;;;;;0.20;0.20;;;;;;;20.11;38.95;100647.97;5111523;27;20051;-38
2021/12/03 09:14:56;;;;;;;0.20;0.20;;;;;;;20.10;39.07;100651.03;5122931;27;20424;-37
2021/12/03 09:17:37;;;;;;;0.20;0.20;;;;;;;20.11;38.88;100652.69;5122434;27;20050;-43
2021/12/03 09:23:06;;;;;;;0.20;0.20;;;;;;;20.11;39.07;100656.28;5146541;27;20713;-36
2021/12/03 09:25:35;;;;;;;0.20;0.20;;;;;;;20.11;39.24;100647.16;5146919;27;20047;-35
2021/12/03 09:28:03;;;;;;;0.20;0.20;;;;;;;20.10;39.04;100654.63;5148285;27;20046;-37
2021/12/03 09:30:35;;;;;;;;;;;;;;;20.11;39.02;100656.28;5127881;27;20042;-37
2021/12/03 09:33:02;;;;;;;0.10;0.10;;;;;;;20.12;39.14;100657.94;5146050;27;20646;-38
2021/12/03 09:35:30;;;;;;;0.10;0.10;;;;;;;20.13;39.16;100662.34;5126900;27;20043;-37
2021/12/03 09:37:56;;;;;;;0.10;0.10;;;;;;;20.13;39.25;100653.22;5147870;27;20043;-43
2021/12/03 09:40:25;;;;;;;0.20;0.20;;;;;;;20.13;39.00;100656.81;5143836;27;20050;-36
2021/12/03 09:42:50;;;;;;;0.20;0.20;;;;;;;20.13;39.09;100642.16;5147002;27;20233;-40
2021/12/03 09:45:16;;;;;;;0.20;0.20;;;;;;;20.07;36.73;100649.69;5151483;27;20172;-38
2021/12/03 09:47:42;;;;;;;0.20;0.20;;;;;;;20.14;38.25;100639.09;5130244;27;20039;-40
2021/12/03 09:50:13;;;;;;;0.20;0.20;;;;;;;20.17;38.14;100635.75;5148058;27;20054;-41
2021/12/03 09:55:25;;;;;;;0.20;0.20;;;;;;;20.15;38.63;100643.50;5131035;27;20046;-38
2021/12/03 09:59:05;;;;;;;0.20;0.20;;;;;;;20.10;36.02;100642.75;5130602;27;20114;-38
2021/12/03 10:00:58;;;;;;;0.20;0.20;;;;;;;20.19;37.33;100643.75;5133817;27;20065;-37
2021/12/03 10:03:38;;;;;;;0.20;0.20;;;;;;;20.20;37.65;100640.69;5135021;27;20081;-38
2021/12/03 10:07:35;;;;;;;0.20;0.20;;;;;;;20.19;37.92;100641.81;5132505;27;20047;-41
2021/12/03 10:09:49;;;;;;;0.20;0.20;;;;;;;20.20;37.80;100634.31;5127707;27;20489;-42
2021/12/03 10:11:52;;;;;;;0.20;0.20;;;;;;;20.19;37.83;100641.81;5133942;27;20055;-38
2021/12/03 10:14:33;;;;;;;0.20;0.20;;;;;;;20.14;34.91;100641.03;5147832;27;20041;-44
2021/12/03 10:20:03;;;;;;;0.20;0.20;;;;;;;20.29;37.33;100627.03;5129257;27;20055;-41
2021/12/03 10:22:53;;;;;;;0.10;0.10;;;;;;;20.28;37.29;100622.63;5113356;27;20469;-37
2021/12/03 10:25:38;;;;;;;0.20;0.20;;;;;;;20.29;37.57;100615.97;5110485;27;20109;-36
2021/12/03 10:31:58;;;;;;;0.20;0.20;;;;;;;20.28;37.62;100609.63;5120663;27;20057;-36
2021/12/03 10:33:56;;;;;;;0.20;0.20;;;;;;;20.28;37.91;100612.38;5119560;27;20058;-35
2021/12/03 10:36:40;;;;;;;0.20;0.20;;;;;;;20.29;38.21;100596.59;5112519;27;21363;-37
2021/12/03 10:39:49;;;;;;;0.17;0.17;;;;;;;20.29;37.97;100597.44;5107987;27;20044;-40
2021/12/03 10:48:02;;;;;;;;;;;;;;;20.35;38.15;100583.56;5105201;27;20055;-44
2021/12/03 10:51:07;;;;;;;0.20;0.20;;;;;;;20.33;37.90;100586.59;5132298;27;20323;-34
2021/12/03 10:53:29;;;;;;;0.20;0.20;;;;;;;20.33;38.38;100575.53;5115355;27;20043;-35
2021/12/03 10:56:37;;;;;;;0.10;0.10;;;;;;;20.33;38.24;100564.47;5122892;27;20074;-35
2021/12/03 10:59:07;;;;;;;0.10;0.10;;;;;;;20.34;38.20;100555.09;5118134;27;20097;-34
2021/12/03 11:07:27;;;;;;;0.10;0.10;;;;;;;20.35;38.20;100533.78;5099412;27;20051;-35
2021/12/03 11:21:39;;;;;;;0.20;0.20;;;;;;;20.40;38.20;100517.91;5122966;27;20445;-37
2021/12/03 11:29:34;;;;;;;0.20;0.20;;;;;;;20.43;37.84;100502.69;5121315;27;20045;-37
2021/12/03 11:35:19;;;;;;;0.20;0.20;;;;;;;20.46;37.99;100488.22;5116929;27;20059;-40
2021/12/03 11:47:20;;;;;;;0.10;0.10;;;;;;;20.53;38.24;100477.66;5151096;27;22721;-36
2021/12/03 11:58:21;;;;;;;0.10;0.10;;;;;;;20.50;38.23;100447.81;5119676;27;20142;-37
2021/12/03 12:04:55;;;;;;;0.20;0.20;;;;;;;20.49;38.13;100455.28;5131494;27;20423;-35
2021/12/03 12:18:28;;;;;;;0.10;0.10;;;;;;;20.50;37.98;100440.34;5168559;27;20116;-36
2021/12/03 13:01:13;;;;;;;0.10;0.10;;;;;;;20.64;37.89;100353.78;5116874;27;20047;-35
2021/12/03 13:11:59;;;;;;;0.10;0.10;;;;;;;20.64;37.57;100351.03;5116835;27;20189;-36
2021/12/03 13:17:39;;;;;;;0.10;0.10;;;;;;;20.62;37.77;100334.75;5091923;27;20362;-36
2021/12/03 13:22:44;;;;;;;0.10;0.10;;;;;;;20.62;37.81;100331.16;5151779;27;20260;-34
2021/12/03 13:28:37;;;;;;;0.10;0.10;;;;;;;20.70;37.31;100311.09;5109054;27;20433;-37
2021/12/03 13:31:44;;;;;;;0.10;0.10;;;;;;;20.69;37.71;100317.75;5112440;27;20047;-35
2021/12/03 13:39:46;;;;;;;0.20;0.20;;;;;;;20.66;37.97;100307.28;5113092;27;20494;-42
2021/12/03 13:46:07;;;;;;;0.20;0.20;;;;;;;20.69;36.46;100312.22;5100685;27;20062;-35
2021/12/03 14:01:33;;;;;;;0.10;0.10;;;;;;;20.67;37.00;100292.31;5164201;27;20827;-36
2021/12/03 14:25:42;;;;;;;0.20;0.20;;;;;;;20.52;32.48;100263.03;5117670;27;20084;-35
2021/12/03 14:35:48;;;;;;;0.10;0.10;;;;;;;20.64;34.03;100265.25;5095197;27;20443;-38
2021/12/03 14:38:19;;;;;;;0.20;0.20;;;;;;;20.65;34.10;100267.75;5094346;27;20063;-39
2021/12/03 14:46:15;;;;;;;0.20;0.20;;;;;;;20.66;34.89;100258.31;5152153;27;20543;-36